Current Weather

Austin-Bergstrom Intl

Austin, Texas (KAUS)

Report from: Thursday, August 18, 2022 9:53 PM CDT
Current time: Thursday, August 18, 2022 11:02 PM CDT

Nearby weather
Weather history
Weather forecast

Temperature23.9°C (75.0°F)
Dew point21.7°C (71.1°F)
Winds 4 kts (2.1 m/s, 4.6 mph) South-Southeast (150°)
Visibility10 mi. (16.1 km)
Clouds Scattered clouds 9,000 ft. (2,743 m)
Scattered clouds 20,000 ft. (6,096 m)
Altimeter29.96 in.Hg (1015 mB)
Relative humidity88 %
Density altitude1,338 ft. (408 m)
Sea-level pressure101.4 kPa (1014 mB, 29.93 in.Hg)
Remarks System requires maintenance
Automated weather observing station with precipitation discriminator
Pressure rising more quickly
Flight conditions Visual Meteorological Conditions
Raw dataKAUS 190253Z 15004KT 10SM SCT090 SCT200 24/22 A2996 RMK AO2 SLP135 T02390217 53033 $
An unhandled exception has occurred. See browser dev tools for details. Reload 🗙